createdAt,value
2017-10-26T00:00:04.962Z,21.83
2017-10-26T00:02:33.320Z,21.00
2017-10-26T00:05:01.670Z,23.77
2017-10-26T00:07:30.072Z,22.20
2017-10-26T00:09:58.418Z,25.40
2017-10-26T00:12:26.775Z,24.03
2017-10-26T00:14:55.123Z,22.73
2017-10-26T00:17:23.515Z,22.97
2017-10-26T00:19:52.034Z,21.97
2017-10-26T00:22:20.378Z,22.10
2017-10-26T00:24:48.722Z,21.03
2017-10-26T00:27:17.078Z,21.33
2017-10-26T00:29:45.453Z,22.47
2017-10-26T00:32:13.844Z,21.50
2017-10-26T00:34:42.182Z,23.60
2017-10-26T00:37:10.546Z,22.67
2017-10-26T00:39:38.902Z,22.77
2017-10-26T00:42:07.292Z,23.97
2017-10-26T00:44:35.670Z,25.37
2017-10-26T00:47:04.090Z,23.20
2017-10-26T00:49:32.438Z,25.07
2017-10-26T00:52:00.824Z,25.93
2017-10-26T00:54:29.235Z,23.07
2017-10-26T00:56:57.582Z,24.83
2017-10-26T00:59:25.936Z,25.60
2017-10-26T01:01:54.291Z,29.40
2017-10-26T01:04:22.638Z,28.13
2017-10-26T01:06:51.071Z,27.80
2017-10-26T01:09:19.484Z,27.27
2017-10-26T01:11:47.863Z,26.47
2017-10-26T01:14:16.245Z,26.77
2017-10-26T01:16:44.595Z,26.80
2017-10-26T01:19:12.960Z,24.43
2017-10-26T01:21:41.324Z,26.47
2017-10-26T01:24:09.695Z,27.33
2017-10-26T01:26:38.063Z,29.43
2017-10-26T01:29:06.414Z,29.00
2017-10-26T01:31:34.773Z,32.27
2017-10-26T01:34:03.126Z,29.90
2017-10-26T01:36:31.519Z,31.27
2017-10-26T01:38:59.895Z,29.40
2017-10-26T01:41:28.246Z,30.53
2017-10-26T01:43:56.630Z,31.13
2017-10-26T01:46:24.988Z,29.90
2017-10-26T01:48:53.343Z,30.07
2017-10-26T01:51:21.759Z,30.87
2017-10-26T01:53:50.133Z,32.30
2017-10-26T01:56:18.530Z,32.17
2017-10-26T01:58:46.924Z,29.83
2017-10-26T02:01:15.299Z,31.53
2017-10-26T02:03:43.656Z,33.53
2017-10-26T02:06:12.039Z,32.10
2017-10-26T02:08:40.400Z,32.03
2017-10-26T02:11:08.780Z,31.50
2017-10-26T02:13:37.174Z,31.73
2017-10-26T02:16:05.561Z,31.10
2017-10-26T02:18:33.922Z,31.73
2017-10-26T02:21:02.315Z,31.80
2017-10-26T02:23:30.696Z,31.43
2017-10-26T02:25:59.100Z,32.80
2017-10-26T02:28:39.236Z,33.00
2017-10-26T02:31:19.355Z,33.30
2017-10-26T02:33:47.716Z,33.10
2017-10-26T02:36:16.116Z,33.47
2017-10-26T02:38:44.527Z,32.20
2017-10-26T02:41:12.904Z,33.30
2017-10-26T02:43:41.284Z,31.70
2017-10-26T02:46:09.630Z,30.63
2017-10-26T02:48:38.025Z,31.43
2017-10-26T02:51:06.394Z,33.07
2017-10-26T02:53:34.742Z,30.63
2017-10-26T02:56:03.178Z,32.13
2017-10-26T02:58:31.532Z,33.10
2017-10-26T03:00:59.928Z,31.40
2017-10-26T03:03:28.288Z,32.87
2017-10-26T03:05:56.686Z,31.03
2017-10-26T03:08:25.048Z,32.07
2017-10-26T03:10:53.386Z,32.10
2017-10-26T03:13:21.780Z,31.93
2017-10-26T03:15:50.126Z,30.00
2017-10-26T03:18:18.523Z,30.30
2017-10-26T03:20:46.884Z,31.73
2017-10-26T03:23:15.273Z,30.70
2017-10-26T03:25:43.659Z,28.97
2017-10-26T03:28:12.062Z,29.43
2017-10-26T03:30:40.413Z,28.10
2017-10-26T03:33:08.757Z,29.80
2017-10-26T03:35:37.120Z,29.17
2017-10-26T03:38:05.472Z,29.33
2017-10-26T03:40:33.856Z,28.17
2017-10-26T03:43:02.223Z,26.87
2017-10-26T03:45:30.604Z,26.93
2017-10-26T03:47:58.976Z,25.27
2017-10-26T03:50:27.362Z,25.80
2017-10-26T03:52:55.733Z,25.87
2017-10-26T03:55:24.149Z,24.37
2017-10-26T03:57:52.500Z,26.77
2017-10-26T04:00:20.856Z,25.53
2017-10-26T04:02:49.224Z,24.70
2017-10-26T04:05:17.603Z,24.00
2017-10-26T04:07:45.971Z,26.90
2017-10-26T04:10:14.351Z,27.63
2017-10-26T04:12:42.702Z,25.97
2017-10-26T04:15:11.079Z,25.30
2017-10-26T04:17:39.445Z,25.90
2017-10-26T04:20:07.847Z,26.50
2017-10-26T04:22:36.209Z,24.73
2017-10-26T04:25:04.561Z,26.00
2017-10-26T04:27:32.914Z,26.83
2017-10-26T04:30:01.283Z,26.30
2017-10-26T04:32:29.639Z,24.90
2017-10-26T04:34:57.999Z,25.70
2017-10-26T04:37:26.392Z,25.87
2017-10-26T04:39:54.739Z,25.47
2017-10-26T04:42:23.137Z,24.13
2017-10-26T04:44:51.499Z,24.37
2017-10-26T04:47:20.003Z,20.63
2017-10-26T04:49:48.341Z,21.47
2017-10-26T04:52:16.704Z,23.57
2017-10-26T04:54:45.063Z,25.20
2017-10-26T04:57:13.427Z,25.10
2017-10-26T04:59:41.816Z,24.37
2017-10-26T05:02:10.172Z,24.50
2017-10-26T05:04:38.563Z,23.93
2017-10-26T05:07:06.938Z,26.13
2017-10-26T05:09:35.329Z,24.70
2017-10-26T05:12:03.691Z,26.53
2017-10-26T05:14:32.088Z,24.97
2017-10-26T05:17:00.501Z,25.03
2017-10-26T05:19:28.895Z,27.10
2017-10-26T05:21:57.247Z,26.50
2017-10-26T05:24:25.623Z,27.80
2017-10-26T05:26:53.972Z,27.20
2017-10-26T05:29:22.366Z,25.13
2017-10-26T05:31:50.774Z,27.80
2017-10-26T05:34:19.140Z,24.77
2017-10-26T05:36:47.499Z,26.70
2017-10-26T05:39:15.856Z,28.33
2017-10-26T05:41:44.212Z,27.03
2017-10-26T05:44:12.598Z,27.60
2017-10-26T05:46:40.955Z,25.10
2017-10-26T05:49:09.353Z,28.70
2017-10-26T05:51:37.725Z,27.20
2017-10-26T05:54:06.078Z,25.17
2017-10-26T05:56:34.467Z,28.80
2017-10-26T05:59:02.860Z,27.30
2017-10-26T06:01:31.223Z,29.13
2017-10-26T06:03:59.612Z,26.67
2017-10-26T06:06:27.967Z,25.53
2017-10-26T06:08:56.322Z,27.67
2017-10-26T06:11:24.687Z,28.07
2017-10-26T06:13:53.067Z,29.20
2017-10-26T06:16:21.420Z,27.67
2017-10-26T06:18:49.779Z,27.50
2017-10-26T06:21:18.155Z,29.27
2017-10-26T06:23:46.546Z,28.70
2017-10-26T06:26:14.931Z,32.80
2017-10-26T06:28:43.283Z,30.13
2017-10-26T06:31:11.642Z,28.77
2017-10-26T06:33:40.037Z,26.50
2017-10-26T06:36:08.389Z,27.67
2017-10-26T06:38:36.811Z,28.83
2017-10-26T06:41:05.176Z,27.83
2017-10-26T06:43:33.555Z,29.83
2017-10-26T06:46:01.951Z,24.97
2017-10-26T06:48:30.307Z,28.30
2017-10-26T06:50:58.663Z,26.33
2017-10-26T06:53:27.050Z,28.27
2017-10-26T06:55:55.435Z,23.70
2017-10-26T06:58:23.796Z,27.13
2017-10-26T07:00:52.271Z,26.50
2017-10-26T07:03:20.650Z,27.37
2017-10-26T07:05:49.115Z,26.20
2017-10-26T07:08:17.506Z,26.97
2017-10-26T07:10:45.864Z,27.77
2017-10-26T07:13:14.238Z,27.47
2017-10-26T07:15:42.592Z,25.10
2017-10-26T07:18:10.984Z,24.50
2017-10-26T07:20:39.358Z,24.40
2017-10-26T07:23:07.710Z,26.47
2017-10-26T07:25:36.088Z,25.60
2017-10-26T07:28:04.446Z,25.30
2017-10-26T07:30:32.995Z,23.50
2017-10-26T07:33:01.343Z,24.00
2017-10-26T07:35:29.697Z,25.13
2017-10-26T07:37:58.046Z,24.20
2017-10-26T07:40:26.479Z,23.83
2017-10-26T07:42:54.867Z,23.13
2017-10-26T07:45:23.224Z,23.27
2017-10-26T07:47:51.603Z,23.93
2017-10-26T07:50:19.991Z,24.00
2017-10-26T07:52:48.369Z,24.60
2017-10-26T07:55:16.719Z,22.47
2017-10-26T07:57:45.162Z,22.60
2017-10-26T08:00:13.551Z,20.60
2017-10-26T08:02:41.989Z,21.13
2017-10-26T08:05:10.369Z,20.17
2017-10-26T08:07:38.727Z,22.60
2017-10-26T08:10:07.110Z,19.57
2017-10-26T08:12:35.479Z,20.13
2017-10-26T08:15:03.881Z,19.47
2017-10-26T08:17:32.246Z,20.10
2017-10-26T08:20:00.608Z,20.47
2017-10-26T08:22:28.952Z,20.50
2017-10-26T08:24:57.311Z,19.33
2017-10-26T08:27:25.684Z,16.87
2017-10-26T08:29:54.060Z,15.90
2017-10-26T08:32:22.443Z,14.20
2017-10-26T08:34:50.797Z,14.20
2017-10-26T08:37:19.153Z,14.80
2017-10-26T08:39:47.540Z,12.80
2017-10-26T08:42:15.888Z,13.00
2017-10-26T08:44:44.296Z,13.37
2017-10-26T08:47:12.647Z,13.40
2017-10-26T08:49:40.997Z,13.83
2017-10-26T08:52:09.371Z,14.37
2017-10-26T08:54:37.793Z,15.77
2017-10-26T08:57:06.267Z,15.90
2017-10-26T08:59:34.626Z,15.90
2017-10-26T09:02:02.970Z,16.30
2017-10-26T09:04:31.313Z,16.93
2017-10-26T09:06:59.658Z,17.10
2017-10-26T09:09:28.073Z,15.50
2017-10-26T09:11:56.414Z,15.27
2017-10-26T09:14:24.787Z,16.57
2017-10-26T09:16:53.164Z,15.00
2017-10-26T09:19:21.520Z,15.40
2017-10-26T09:21:49.873Z,13.57
2017-10-26T09:24:18.228Z,14.80
2017-10-26T09:26:46.598Z,14.60
2017-10-26T09:29:14.950Z,13.90
2017-10-26T09:31:43.299Z,11.50
2017-10-26T09:34:11.650Z,12.17
2017-10-26T09:36:39.996Z,10.90
2017-10-26T09:39:08.378Z,11.73
2017-10-26T09:41:36.727Z,9.50
2017-10-26T09:44:05.075Z,9.93
2017-10-26T09:46:33.414Z,8.73
2017-10-26T09:49:01.753Z,9.53
2017-10-26T09:51:30.106Z,9.53
2017-10-26T09:53:58.491Z,9.93
2017-10-26T09:56:26.882Z,10.53
2017-10-26T09:58:55.258Z,9.40
2017-10-26T10:01:23.666Z,11.40
2017-10-26T10:03:52.037Z,9.43
2017-10-26T10:06:20.386Z,10.40
2017-10-26T10:08:48.730Z,10.33
2017-10-26T10:11:17.997Z,9.67
2017-10-26T10:13:46.374Z,10.67
2017-10-26T10:16:27.710Z,11.30
2017-10-26T10:18:56.075Z,8.77
2017-10-26T10:21:24.464Z,9.60
2017-10-26T10:23:52.845Z,9.90
2017-10-26T10:26:21.218Z,9.77
2017-10-26T10:28:49.563Z,8.70
2017-10-26T10:31:17.926Z,10.30
2017-10-26T10:33:46.271Z,9.77
2017-10-26T10:36:14.610Z,9.60
2017-10-26T10:38:42.956Z,9.60
2017-10-26T10:41:11.299Z,9.60
2017-10-26T10:43:39.697Z,8.77
2017-10-26T10:46:08.050Z,8.87
2017-10-26T10:48:36.440Z,9.07
2017-10-26T10:51:05.693Z,8.67
2017-10-26T10:53:34.046Z,8.03
2017-10-26T10:56:02.391Z,8.37
2017-10-26T10:58:30.740Z,10.33
2017-10-26T11:00:59.095Z,9.97
2017-10-26T11:03:27.446Z,9.73
2017-10-26T11:05:55.842Z,11.20
2017-10-26T11:08:24.192Z,10.73
2017-10-26T11:10:52.571Z,10.33
2017-10-26T11:13:20.953Z,10.33
2017-10-26T11:15:49.303Z,11.93
2017-10-26T11:18:17.682Z,11.10
2017-10-26T11:20:46.068Z,11.30
2017-10-26T11:23:14.456Z,10.73
2017-10-26T11:25:42.806Z,10.43
2017-10-26T11:28:11.161Z,10.47
2017-10-26T11:30:39.508Z,9.80
2017-10-26T11:33:07.856Z,9.40
2017-10-26T11:35:36.206Z,9.40
2017-10-26T11:38:04.639Z,8.93
2017-10-26T11:40:33.011Z,8.60
2017-10-26T11:43:01.362Z,9.07
2017-10-26T11:45:29.693Z,8.63
2017-10-26T11:47:58.038Z,8.30
2017-10-26T11:50:26.425Z,8.30
2017-10-26T11:52:54.820Z,8.23
2017-10-26T11:55:23.187Z,9.40
2017-10-26T11:57:51.558Z,9.60
2017-10-26T12:00:19.943Z,8.80
2017-10-26T12:02:48.299Z,8.10
2017-10-26T12:05:16.630Z,7.63
2017-10-26T12:07:44.999Z,7.17
2017-10-26T12:10:13.349Z,6.27
2017-10-26T12:12:41.702Z,6.00
2017-10-26T12:15:10.039Z,7.10
2017-10-26T12:17:38.379Z,7.77
2017-10-26T12:20:06.724Z,7.47
2017-10-26T12:22:35.071Z,7.37
2017-10-26T12:25:03.441Z,7.47
2017-10-26T12:27:31.807Z,7.60
2017-10-26T12:30:00.147Z,7.27
2017-10-26T12:32:28.495Z,7.63
2017-10-26T12:34:56.836Z,7.10
2017-10-26T12:37:25.204Z,6.97
2017-10-26T12:39:53.575Z,7.97
2017-10-26T12:42:21.947Z,6.90
2017-10-26T12:44:50.288Z,7.67
2017-10-26T12:47:18.690Z,8.40
2017-10-26T12:49:47.058Z,7.27
2017-10-26T12:52:15.438Z,6.70
2017-10-26T12:54:43.779Z,6.90
2017-10-26T12:57:12.159Z,7.70
2017-10-26T12:59:40.490Z,6.50
2017-10-26T13:02:08.853Z,6.87
2017-10-26T13:04:37.215Z,6.63
2017-10-26T13:07:05.599Z,6.57
2017-10-26T13:09:33.934Z,7.37
2017-10-26T13:12:02.310Z,7.20
2017-10-26T13:14:30.657Z,6.87
2017-10-26T13:16:59.002Z,6.70
2017-10-26T13:19:27.358Z,6.70
2017-10-26T13:21:55.707Z,6.83
2017-10-26T13:24:24.074Z,6.20
2017-10-26T13:26:52.402Z,6.00
2017-10-26T13:29:20.748Z,7.20
2017-10-26T13:31:49.087Z,6.83
2017-10-26T13:34:17.557Z,7.23
2017-10-26T13:36:45.935Z,7.10
2017-10-26T13:39:14.275Z,7.53
2017-10-26T13:41:42.617Z,7.23
2017-10-26T13:44:11.015Z,7.57
2017-10-26T13:46:39.346Z,7.70
2017-10-26T13:49:07.680Z,7.57
2017-10-26T13:51:36.020Z,8.90
2017-10-26T13:54:04.391Z,8.23
2017-10-26T13:56:32.730Z,8.30
2017-10-26T13:59:01.213Z,7.60
2017-10-26T14:01:29.566Z,7.90
2017-10-26T14:03:57.953Z,7.33
2017-10-26T14:06:26.328Z,7.97
2017-10-26T14:08:55.498Z,7.70
2017-10-26T14:11:23.886Z,7.97
2017-10-26T14:13:52.239Z,7.20
2017-10-26T14:16:20.580Z,6.90
2017-10-26T14:18:49.115Z,8.03
2017-10-26T14:21:17.482Z,9.20
2017-10-26T14:23:45.856Z,9.20
2017-10-26T14:26:14.319Z,9.17
2017-10-26T14:28:42.735Z,8.83
2017-10-26T14:31:11.186Z,9.63
2017-10-26T14:33:39.560Z,9.63
2017-10-26T14:36:07.923Z,9.67
2017-10-26T14:38:36.291Z,10.13
2017-10-26T14:41:04.678Z,9.07
2017-10-26T14:43:33.029Z,9.00
2017-10-26T14:46:01.385Z,10.03
2017-10-26T14:48:29.740Z,8.83
2017-10-26T14:50:58.091Z,10.67
2017-10-26T14:53:26.445Z,10.77
2017-10-26T14:55:54.885Z,9.10
2017-10-26T14:58:23.252Z,10.27
2017-10-26T15:00:51.618Z,10.13
2017-10-26T15:03:19.975Z,9.70
2017-10-26T15:05:48.312Z,8.70
2017-10-26T15:08:16.677Z,9.50
2017-10-26T15:10:45.040Z,9.33
2017-10-26T15:13:13.416Z,9.07
2017-10-26T15:15:41.762Z,10.00
2017-10-26T15:18:10.128Z,9.90
2017-10-26T15:20:38.505Z,9.20
2017-10-26T15:23:06.847Z,9.13
2017-10-26T15:25:35.194Z,10.20
2017-10-26T15:28:03.539Z,9.20
2017-10-26T15:30:31.888Z,10.60
2017-10-26T15:33:00.253Z,9.63
2017-10-26T15:35:28.748Z,10.10
2017-10-26T15:37:57.114Z,10.13
2017-10-26T15:40:25.473Z,10.10
2017-10-26T15:42:53.834Z,10.30
2017-10-26T15:45:22.174Z,10.17
2017-10-26T15:47:50.540Z,9.97
2017-10-26T15:50:18.881Z,9.80
2017-10-26T15:52:47.252Z,9.47
2017-10-26T15:55:15.632Z,12.20
2017-10-26T15:57:43.979Z,9.90
2017-10-26T16:00:12.342Z,9.13
2017-10-26T16:02:40.748Z,8.87
2017-10-26T16:05:09.135Z,10.07
2017-10-26T16:07:37.487Z,8.70
2017-10-26T16:10:05.858Z,8.50
2017-10-26T16:12:34.202Z,10.43
2017-10-26T16:15:02.589Z,10.30
2017-10-26T16:17:30.946Z,9.53
2017-10-26T16:19:59.331Z,9.40
2017-10-26T16:22:27.700Z,10.53
2017-10-26T16:24:56.075Z,11.17
2017-10-26T16:27:24.414Z,11.50
2017-10-26T16:29:52.758Z,10.63
2017-10-26T16:32:21.145Z,12.07
2017-10-26T16:34:49.554Z,11.63
2017-10-26T16:37:17.966Z,12.33
2017-10-26T16:39:46.424Z,13.13
2017-10-26T16:42:14.784Z,13.10
2017-10-26T16:44:43.340Z,15.00
2017-10-26T16:47:11.835Z,14.13
2017-10-26T16:49:40.206Z,14.33
2017-10-26T16:52:08.590Z,14.10
2017-10-26T16:54:36.943Z,13.73
2017-10-26T16:57:05.322Z,13.90
2017-10-26T16:59:33.687Z,14.80
2017-10-26T17:02:02.975Z,15.30
2017-10-26T17:04:31.359Z,15.03
2017-10-26T17:06:59.708Z,15.97
2017-10-26T17:09:28.146Z,16.20
2017-10-26T17:11:56.509Z,16.33
2017-10-26T17:14:24.959Z,15.90
2017-10-26T17:16:53.309Z,15.13
2017-10-26T17:19:21.703Z,18.50
2017-10-26T17:21:50.089Z,16.10
2017-10-26T17:24:18.443Z,15.97
2017-10-26T17:26:46.799Z,16.20
2017-10-26T17:29:15.192Z,15.80
2017-10-26T17:31:43.563Z,17.37
2017-10-26T17:34:11.923Z,18.60
2017-10-26T17:36:41.210Z,17.43
2017-10-26T17:39:09.560Z,17.33
2017-10-26T17:41:37.931Z,16.03
2017-10-26T17:44:06.298Z,16.63
2017-10-26T17:46:34.803Z,18.10
2017-10-26T17:49:03.158Z,19.67
2017-10-26T17:51:31.512Z,19.57
2017-10-26T17:53:59.870Z,18.63
2017-10-26T17:56:28.260Z,20.50
2017-10-26T17:58:56.639Z,22.77
2017-10-26T18:01:24.980Z,23.40
2017-10-26T18:03:53.350Z,22.80
2017-10-26T18:08:48.306Z,24.07
2017-10-26T18:11:16.662Z,26.13
2017-10-26T18:13:45.043Z,25.53
2017-10-26T18:16:13.418Z,24.73
2017-10-26T18:18:41.776Z,25.60
2017-10-26T18:21:10.154Z,25.90
2017-10-26T18:23:38.542Z,27.17
2017-10-26T18:26:06.936Z,27.70
2017-10-26T18:28:35.322Z,29.00
2017-10-26T18:31:03.681Z,30.03
2017-10-26T18:33:32.036Z,29.13
2017-10-26T18:36:00.401Z,33.10
2017-10-26T18:38:28.751Z,31.43
2017-10-26T18:40:57.136Z,32.17
2017-10-26T18:43:25.506Z,32.37
2017-10-26T18:45:53.858Z,30.90
2017-10-26T18:48:22.211Z,30.70
2017-10-26T18:50:50.603Z,31.03
2017-10-26T18:53:18.972Z,31.63
2017-10-26T18:55:47.325Z,33.63
2017-10-26T18:58:15.687Z,32.43
2017-10-26T19:00:44.053Z,32.90
2017-10-26T19:03:12.467Z,33.37
2017-10-26T19:05:40.829Z,32.80
2017-10-26T19:08:09.197Z,34.40
2017-10-26T19:10:37.542Z,36.03
2017-10-26T19:13:05.935Z,33.73
2017-10-26T19:15:34.335Z,36.20
2017-10-26T19:18:02.679Z,35.80
2017-10-26T19:20:31.062Z,34.50
2017-10-26T19:22:59.419Z,33.90
2017-10-26T19:25:27.807Z,33.10
2017-10-26T19:27:56.178Z,34.87
2017-10-26T19:30:24.540Z,34.77
2017-10-26T19:32:52.944Z,35.97
2017-10-26T19:35:21.322Z,35.73
2017-10-26T19:37:49.687Z,35.87
2017-10-26T19:40:18.045Z,38.00
2017-10-26T19:42:46.432Z,37.23
2017-10-26T19:45:14.786Z,37.77
2017-10-26T19:47:43.147Z,38.50
2017-10-26T19:50:11.500Z,39.10
2017-10-26T19:52:39.897Z,38.40
2017-10-26T19:55:08.365Z,40.17
2017-10-26T19:57:36.757Z,41.17
2017-10-26T20:00:05.111Z,38.67
2017-10-26T20:02:33.511Z,38.47
2017-10-26T20:05:01.882Z,41.63
2017-10-26T20:07:30.239Z,40.27
2017-10-26T20:09:58.655Z,39.40
2017-10-26T20:12:27.023Z,41.20
2017-10-26T20:14:55.415Z,40.03
2017-10-26T20:17:23.776Z,37.47
2017-10-26T20:19:52.138Z,36.30
2017-10-26T20:22:20.825Z,36.17
2017-10-26T20:24:49.210Z,37.57
2017-10-26T20:27:18.041Z,23.40
2017-10-26T20:29:46.443Z,15.30
2017-10-26T20:32:14.799Z,17.67
2017-10-26T20:34:43.166Z,21.43
2017-10-26T20:37:11.540Z,23.67
2017-10-26T20:39:39.900Z,26.80
2017-10-26T20:42:08.254Z,32.07
2017-10-26T20:44:36.746Z,30.20
2017-10-26T20:47:05.128Z,31.90
2017-10-26T20:49:39.180Z,34.00
2017-10-26T20:52:13.312Z,32.50
2017-10-26T20:54:47.142Z,30.10
2017-10-26T20:57:21.128Z,28.83
2017-10-26T20:59:55.089Z,29.20
2017-10-26T21:02:29.106Z,28.63
2017-10-26T21:05:02.973Z,30.03
2017-10-26T21:07:36.947Z,30.47
2017-10-26T21:10:05.299Z,30.73
2017-10-26T21:15:40.780Z,27.57
2017-10-26T21:18:09.139Z,30.83
2017-10-26T21:20:37.773Z,31.17
2017-10-26T21:23:06.142Z,29.70
2017-10-26T21:25:34.543Z,32.30
2017-10-26T21:28:02.933Z,32.43
2017-10-26T21:30:31.315Z,31.83
2017-10-26T21:32:59.783Z,32.63
2017-10-26T21:35:28.134Z,33.57
2017-10-26T21:37:56.510Z,37.03
2017-10-26T21:40:24.880Z,31.03
2017-10-26T21:42:53.280Z,32.10
2017-10-26T21:45:21.635Z,31.27
2017-10-26T21:47:49.974Z,28.97
2017-10-26T21:50:18.334Z,28.60
2017-10-26T21:52:46.690Z,29.57
2017-10-26T21:55:15.086Z,26.97
2017-10-26T21:57:43.468Z,26.70
2017-10-26T22:00:11.841Z,26.20
2017-10-26T22:02:40.238Z,31.00
2017-10-26T22:05:08.595Z,29.87
2017-10-26T22:07:36.979Z,31.40
2017-10-26T22:10:05.334Z,30.83
2017-10-26T22:12:33.696Z,33.13
2017-10-26T22:15:02.064Z,34.60
2017-10-26T22:17:30.422Z,34.23
2017-10-26T22:19:58.807Z,37.20
2017-10-26T22:22:27.164Z,39.40
2017-10-26T22:24:55.533Z,41.93
2017-10-26T22:27:23.898Z,40.70
2017-10-26T22:29:52.273Z,38.73
2017-10-26T22:32:20.650Z,40.03
2017-10-26T22:34:49.005Z,39.10
2017-10-26T22:37:17.395Z,38.80
2017-10-26T22:39:45.775Z,37.60
2017-10-26T22:42:14.128Z,38.53
2017-10-26T22:44:42.483Z,35.37
2017-10-26T22:47:10.929Z,30.77
2017-10-26T22:49:39.302Z,31.73
2017-10-26T22:52:07.663Z,33.00
2017-10-26T22:54:36.022Z,33.20
2017-10-26T22:57:04.414Z,33.03
2017-10-26T22:59:32.768Z,34.17
2017-10-26T23:02:01.119Z,35.57
2017-10-26T23:04:29.484Z,34.87
2017-10-26T23:06:57.878Z,35.50
2017-10-26T23:09:26.251Z,36.50
2017-10-26T23:11:54.644Z,35.87
2017-10-26T23:14:23.141Z,38.30
2017-10-26T23:16:51.488Z,32.50
2017-10-26T23:19:19.844Z,34.90
2017-10-26T23:21:48.193Z,35.37
2017-10-26T23:24:16.575Z,34.13
2017-10-26T23:26:44.947Z,34.73
2017-10-26T23:29:13.323Z,35.77
2017-10-26T23:31:41.675Z,34.30
2017-10-26T23:34:10.280Z,34.23
2017-10-26T23:36:38.727Z,31.03
2017-10-26T23:39:07.119Z,30.33
2017-10-26T23:41:35.488Z,29.77
2017-10-26T23:44:03.840Z,29.13
2017-10-26T23:46:32.190Z,28.50
2017-10-26T23:49:00.579Z,30.00
2017-10-26T23:51:28.946Z,31.20
2017-10-26T23:53:57.335Z,33.80
2017-10-26T23:56:25.688Z,34.70
2017-10-26T23:58:54.104Z,25.03
